createdAt,value
2018-01-27T00:00:45.113Z,60.43
2018-01-27T00:03:12.536Z,58.43
2018-01-27T00:05:39.926Z,59.23
2018-01-27T00:08:07.369Z,58.87
2018-01-27T00:10:34.754Z,59.63
2018-01-27T00:13:02.167Z,53.20
2018-01-27T00:15:29.556Z,50.97
2018-01-27T00:17:56.972Z,60.87
2018-01-27T00:20:24.362Z,68.37
2018-01-27T00:22:52.682Z,56.83
2018-01-27T00:25:20.084Z,63.80
2018-01-27T00:27:47.481Z,65.10
2018-01-27T00:30:14.896Z,71.53
2018-01-27T00:32:42.299Z,60.80
2018-01-27T00:35:09.699Z,62.90
2018-01-27T00:37:37.090Z,68.00
2018-01-27T00:40:04.511Z,67.17
2018-01-27T00:42:31.915Z,59.73
2018-01-27T00:44:59.304Z,65.33
2018-01-27T00:47:26.702Z,54.03
2018-01-27T00:49:54.106Z,71.50
2018-01-27T00:52:21.518Z,63.90
2018-01-27T00:54:48.914Z,66.90
2018-01-27T00:57:16.425Z,61.57
2018-01-27T00:59:43.826Z,53.93
2018-01-27T01:02:11.223Z,50.70
2018-01-27T01:04:38.645Z,53.03
2018-01-27T01:07:06.034Z,66.40
2018-01-27T01:09:33.470Z,57.63
2018-01-27T01:12:00.998Z,52.03
2018-01-27T01:14:28.455Z,45.50
2018-01-27T01:16:55.871Z,49.23
2018-01-27T01:19:23.285Z,46.60
2018-01-27T01:21:50.684Z,52.17
2018-01-27T01:24:18.086Z,50.47
2018-01-27T01:26:45.502Z,46.70
2018-01-27T01:29:12.901Z,49.57
2018-01-27T01:31:40.292Z,57.23
2018-01-27T01:34:07.702Z,45.73
2018-01-27T01:36:35.136Z,44.80
2018-01-27T01:39:02.514Z,43.30
2018-01-27T01:41:29.911Z,48.60
2018-01-27T01:44:02.913Z,50.83
2018-01-27T01:46:30.353Z,47.33
2018-01-27T01:49:09.749Z,56.40
2018-01-27T01:51:37.379Z,39.57
2018-01-27T01:54:04.787Z,54.47
2018-01-27T01:56:32.189Z,45.90
2018-01-27T01:58:59.602Z,43.57
2018-01-27T02:01:27.001Z,48.80
2018-01-27T02:03:54.414Z,52.93
2018-01-27T02:06:21.812Z,48.17
2018-01-27T02:08:49.217Z,45.73
2018-01-27T02:11:16.611Z,41.40
2018-01-27T02:13:44.081Z,40.83
2018-01-27T02:16:11.523Z,43.53
2018-01-27T02:18:38.990Z,38.47
2018-01-27T02:21:06.478Z,44.17
2018-01-27T02:23:33.998Z,42.87
2018-01-27T02:26:01.456Z,41.93
2018-01-27T02:28:28.847Z,43.67
2018-01-27T02:30:56.251Z,47.60
2018-01-27T02:33:23.652Z,41.43
2018-01-27T02:35:51.051Z,49.83
2018-01-27T02:38:18.554Z,44.30
2018-01-27T02:40:45.959Z,49.73
2018-01-27T02:43:13.359Z,37.13
2018-01-27T02:45:40.771Z,39.83
2018-01-27T02:48:08.185Z,43.83
2018-01-27T02:50:35.579Z,46.67
2018-01-27T02:53:03.004Z,36.80
2018-01-27T02:55:30.386Z,42.10
2018-01-27T02:57:57.871Z,49.23
2018-01-27T03:00:25.307Z,38.63
2018-01-27T03:02:52.688Z,42.87
2018-01-27T03:05:20.078Z,38.90
2018-01-27T03:07:48.189Z,41.93
2018-01-27T03:10:15.617Z,42.63
2018-01-27T03:12:43.016Z,40.47
2018-01-27T03:15:10.427Z,38.83
2018-01-27T03:17:37.817Z,40.10
2018-01-27T03:20:05.225Z,44.27
2018-01-27T03:22:32.645Z,47.53
2018-01-27T03:25:00.042Z,36.17
2018-01-27T03:27:27.542Z,39.53
2018-01-27T03:29:54.956Z,43.60
2018-01-27T03:32:22.358Z,49.00
2018-01-27T03:34:49.755Z,40.10
2018-01-27T03:37:17.172Z,45.43
2018-01-27T03:39:44.583Z,49.83
2018-01-27T03:42:11.983Z,45.73
2018-01-27T03:44:39.381Z,56.37
2018-01-27T03:47:06.788Z,47.60
2018-01-27T03:49:34.194Z,47.63
2018-01-27T03:52:01.591Z,49.30
2018-01-27T03:54:28.986Z,55.27
2018-01-27T03:56:56.404Z,48.10
2018-01-27T03:59:23.805Z,52.77
2018-01-27T04:01:51.227Z,41.53
2018-01-27T04:04:18.626Z,49.50
2018-01-27T04:06:46.021Z,40.20
2018-01-27T04:09:13.457Z,45.20
2018-01-27T04:11:40.947Z,46.70
2018-01-27T04:14:08.354Z,50.47
2018-01-27T04:16:35.738Z,44.73
2018-01-27T04:19:03.168Z,50.27
2018-01-27T04:21:30.672Z,40.27
2018-01-27T04:23:58.070Z,49.30
2018-01-27T04:26:25.463Z,48.33
2018-01-27T04:28:52.863Z,53.40
2018-01-27T04:31:20.276Z,54.80
2018-01-27T04:33:47.658Z,50.53
2018-01-27T04:36:15.088Z,50.40
2018-01-27T04:38:42.498Z,53.27
2018-01-27T04:41:09.897Z,49.93
2018-01-27T04:43:37.298Z,42.67
2018-01-27T04:46:04.695Z,48.80
2018-01-27T04:48:32.098Z,40.93
2018-01-27T04:50:59.499Z,47.47
2018-01-27T04:53:26.914Z,47.73
2018-01-27T04:55:54.323Z,50.50
2018-01-27T04:58:21.714Z,55.00
2018-01-27T05:00:49.129Z,55.63
2018-01-27T05:03:16.532Z,51.00
2018-01-27T05:05:43.921Z,50.70
2018-01-27T05:08:11.314Z,49.00
2018-01-27T05:10:38.734Z,53.80
2018-01-27T05:13:06.137Z,55.07
2018-01-27T05:15:33.538Z,58.20
2018-01-27T05:18:00.934Z,56.07
2018-01-27T05:20:28.343Z,55.37
2018-01-27T05:22:55.734Z,55.03
2018-01-27T05:25:23.151Z,61.87
2018-01-27T05:27:50.650Z,57.87
2018-01-27T05:30:19.011Z,65.87
2018-01-27T05:32:46.418Z,55.67
2018-01-27T05:35:13.827Z,55.80
2018-01-27T05:37:41.218Z,65.93
2018-01-27T05:40:07.909Z,59.37
2018-01-27T05:42:35.314Z,54.70
2018-01-27T05:45:02.711Z,59.93
2018-01-27T05:47:30.122Z,60.40
2018-01-27T05:49:57.538Z,56.17
2018-01-27T05:52:24.935Z,51.93
2018-01-27T05:54:52.346Z,64.13
2018-01-27T05:57:19.751Z,51.93
2018-01-27T05:59:47.162Z,62.17
2018-01-27T06:02:14.667Z,56.60
2018-01-27T06:04:42.070Z,53.27
2018-01-27T06:07:09.573Z,65.47
2018-01-27T06:09:36.967Z,53.93
2018-01-27T06:12:04.386Z,59.40
2018-01-27T06:14:31.798Z,54.10
2018-01-27T06:16:59.210Z,54.97
2018-01-27T06:19:26.614Z,58.73
2018-01-27T06:21:54.011Z,57.20
2018-01-27T06:24:21.414Z,54.27
2018-01-27T06:26:48.818Z,57.60
2018-01-27T06:29:16.226Z,54.90
2018-01-27T06:31:43.635Z,64.50
2018-01-27T06:34:11.050Z,59.47
2018-01-27T06:36:38.438Z,63.37
2018-01-27T06:39:05.942Z,60.90
2018-01-27T06:41:33.432Z,58.63
2018-01-27T06:44:00.822Z,56.60
2018-01-27T06:46:28.217Z,57.37
2018-01-27T06:48:55.611Z,56.30
2018-01-27T06:51:23.014Z,59.63
2018-01-27T06:53:50.411Z,57.67
2018-01-27T06:56:17.807Z,54.27
2018-01-27T06:58:45.386Z,74.33
2018-01-27T07:01:12.799Z,55.57
2018-01-27T07:03:40.216Z,63.50
2018-01-27T07:06:07.694Z,57.23
2018-01-27T07:08:35.075Z,56.27
2018-01-27T07:11:02.486Z,57.87
2018-01-27T07:13:29.882Z,60.13
2018-01-27T07:15:57.284Z,66.63
2018-01-27T07:18:24.700Z,64.23
2018-01-27T07:20:52.211Z,64.10
2018-01-27T07:23:19.712Z,61.30
2018-01-27T07:25:47.132Z,74.10
2018-01-27T07:28:14.539Z,71.07
2018-01-27T07:30:41.944Z,70.27
2018-01-27T07:33:09.338Z,56.07
2018-01-27T07:35:36.747Z,67.53
2018-01-27T07:38:04.159Z,60.43
2018-01-27T07:40:31.945Z,66.50
2018-01-27T07:42:59.432Z,54.33
2018-01-27T07:45:26.837Z,61.10
2018-01-27T07:47:54.231Z,63.23
2018-01-27T07:50:21.631Z,69.87
2018-01-27T07:52:49.075Z,71.33
2018-01-27T07:55:16.478Z,63.30
2018-01-27T07:57:43.873Z,70.60
2018-01-27T08:00:11.279Z,59.37
2018-01-27T08:02:38.672Z,56.20
2018-01-27T08:05:06.070Z,62.40
2018-01-27T08:07:33.459Z,65.00
2018-01-27T08:10:00.857Z,65.00
2018-01-27T08:12:28.257Z,56.87
2018-01-27T08:14:55.658Z,62.00
2018-01-27T08:17:23.062Z,58.30
2018-01-27T08:19:50.466Z,60.77
2018-01-27T08:22:17.868Z,70.40
2018-01-27T08:24:45.274Z,54.97
2018-01-27T08:27:12.679Z,57.50
2018-01-27T08:29:40.070Z,62.60
2018-01-27T08:32:07.490Z,68.13
2018-01-27T08:34:34.899Z,65.10
2018-01-27T08:37:02.338Z,63.43
2018-01-27T08:39:29.734Z,64.50
2018-01-27T08:41:57.146Z,54.47
2018-01-27T08:44:24.538Z,56.33
2018-01-27T08:46:51.938Z,58.53
2018-01-27T08:49:19.339Z,59.80
2018-01-27T08:51:46.738Z,56.73
2018-01-27T08:54:14.157Z,61.50
2018-01-27T08:56:41.558Z,55.53
2018-01-27T08:59:08.950Z,54.97
2018-01-27T09:01:36.430Z,54.20
2018-01-27T09:04:03.845Z,63.23
2018-01-27T09:06:31.291Z,67.20
2018-01-27T09:08:58.678Z,56.60
2018-01-27T09:11:26.090Z,63.40
2018-01-27T09:13:53.491Z,64.03
2018-01-27T09:16:20.910Z,71.30
2018-01-27T09:18:48.387Z,70.83
2018-01-27T09:21:15.783Z,77.23
2018-01-27T09:23:43.201Z,66.60
2018-01-27T09:26:10.677Z,68.60
2018-01-27T09:28:38.992Z,65.10
2018-01-27T09:31:06.696Z,77.17
2018-01-27T09:33:34.149Z,81.73
2018-01-27T09:36:01.547Z,91.43
2018-01-27T09:38:28.970Z,106.23
2018-01-27T09:40:56.478Z,93.20
2018-01-27T09:43:23.943Z,92.00
2018-01-27T09:45:51.435Z,96.90
2018-01-27T09:48:18.834Z,99.47
2018-01-27T09:50:46.238Z,94.23
2018-01-27T09:53:13.629Z,95.93
2018-01-27T09:55:41.055Z,94.83
2018-01-27T09:58:08.493Z,86.23
2018-01-27T10:00:35.886Z,87.43
2018-01-27T10:03:03.278Z,82.10
2018-01-27T10:05:30.675Z,81.57
2018-01-27T10:07:58.071Z,89.00
2018-01-27T10:10:25.595Z,104.37
2018-01-27T10:12:52.990Z,99.50
2018-01-27T10:15:20.388Z,92.40
2018-01-27T10:17:47.782Z,98.87
2018-01-27T10:20:15.177Z,91.33
2018-01-27T10:22:42.578Z,103.13
2018-01-27T10:25:10.011Z,100.33
2018-01-27T10:27:37.423Z,102.90
2018-01-27T10:30:04.874Z,97.33
2018-01-27T10:32:32.322Z,102.43
2018-01-27T10:34:59.733Z,100.53
2018-01-27T10:37:27.126Z,106.40
2018-01-27T10:39:54.539Z,105.60
2018-01-27T10:42:21.947Z,105.33
2018-01-27T10:44:49.342Z,103.63
2018-01-27T10:47:16.750Z,110.47
2018-01-27T10:49:44.155Z,91.30
2018-01-27T10:52:11.554Z,86.30
2018-01-27T10:54:38.974Z,93.97
2018-01-27T10:57:06.382Z,86.73
2018-01-27T10:59:33.783Z,76.73
2018-01-27T11:02:01.186Z,80.13
2018-01-27T11:04:28.632Z,78.47
2018-01-27T11:06:56.072Z,85.80
2018-01-27T11:09:23.477Z,82.80
2018-01-27T11:11:50.876Z,78.27
2018-01-27T11:14:18.270Z,84.13
2018-01-27T11:16:45.670Z,79.17
2018-01-27T11:19:13.066Z,87.03
2018-01-27T11:21:40.473Z,76.70
2018-01-27T11:24:07.875Z,70.10
2018-01-27T11:26:35.310Z,71.13
2018-01-27T11:29:02.698Z,65.77
2018-01-27T11:31:30.246Z,71.37
2018-01-27T11:33:57.709Z,63.67
2018-01-27T11:36:25.284Z,69.03
2018-01-27T11:38:52.873Z,70.30
2018-01-27T11:41:20.550Z,68.23
2018-01-27T11:43:48.078Z,66.43
2018-01-27T11:46:15.497Z,60.33
2018-01-27T11:48:43.034Z,66.27
2018-01-27T11:51:10.612Z,64.47
2018-01-27T11:53:38.101Z,61.33
2018-01-27T11:56:06.396Z,66.10
2018-01-27T11:58:33.974Z,59.67
2018-01-27T12:01:01.576Z,64.87
2018-01-27T12:03:29.292Z,65.20
2018-01-27T12:05:56.800Z,74.03
2018-01-27T12:08:24.457Z,69.20
2018-01-27T12:10:52.054Z,60.57
2018-01-27T12:13:19.584Z,71.83
2018-01-27T12:15:47.152Z,73.70
2018-01-27T12:18:14.767Z,71.03
2018-01-27T12:20:42.427Z,77.63
2018-01-27T12:23:10.045Z,78.53
2018-01-27T12:25:37.557Z,66.87
2018-01-27T12:28:05.169Z,60.60
2018-01-27T12:30:32.674Z,65.10
2018-01-27T12:33:00.254Z,54.93
2018-01-27T12:35:27.816Z,60.57
2018-01-27T12:37:55.405Z,51.70
2018-01-27T12:40:22.918Z,59.53
2018-01-27T12:42:50.505Z,49.73
2018-01-27T12:45:18.076Z,56.30
2018-01-27T12:47:45.616Z,54.77
2018-01-27T12:50:13.106Z,52.23
2018-01-27T12:52:40.708Z,55.53
2018-01-27T12:55:08.215Z,50.70
2018-01-27T12:57:35.755Z,54.53
2018-01-27T13:00:04.016Z,37.75
2018-01-27T13:02:31.648Z,41.13
2018-01-27T13:04:59.206Z,32.10
2018-01-27T13:07:26.869Z,29.20
2018-01-27T13:09:54.426Z,25.83
2018-01-27T13:12:21.894Z,29.53
2018-01-27T13:14:49.462Z,25.13
2018-01-27T13:17:17.314Z,25.53
2018-01-27T13:19:44.747Z,25.20
2018-01-27T13:22:12.340Z,26.57
2018-01-27T13:24:39.830Z,25.20
2018-01-27T13:27:07.402Z,26.57
2018-01-27T13:29:34.941Z,22.20
2018-01-27T13:32:02.537Z,24.13
2018-01-27T13:34:30.095Z,24.43
2018-01-27T13:36:57.696Z,23.03
2018-01-27T13:39:25.266Z,24.00
2018-01-27T13:41:52.762Z,21.90
2018-01-27T13:44:20.277Z,22.87
2018-01-27T13:46:47.864Z,23.60
2018-01-27T13:49:15.398Z,26.40
2018-01-27T13:51:43.033Z,27.40
2018-01-27T13:54:10.550Z,22.97
2018-01-27T13:56:38.014Z,27.47
2018-01-27T13:59:05.624Z,23.43
2018-01-27T14:01:33.187Z,27.90
2018-01-27T14:04:01.033Z,20.60
2018-01-27T14:06:28.543Z,28.93
2018-01-27T14:08:56.124Z,24.07
2018-01-27T14:11:23.529Z,23.13
2018-01-27T14:13:50.932Z,29.80
2018-01-27T14:16:18.336Z,28.00
2018-01-27T14:18:45.750Z,26.53
2018-01-27T14:21:13.150Z,26.10
2018-01-27T14:23:40.577Z,26.10
2018-01-27T14:26:07.966Z,31.07
2018-01-27T14:28:35.373Z,31.30
2018-01-27T14:31:02.779Z,31.17
2018-01-27T14:33:30.182Z,39.37
2018-01-27T14:35:57.576Z,31.17
2018-01-27T14:38:24.998Z,25.10
2018-01-27T14:40:52.402Z,25.57
2018-01-27T14:43:19.823Z,27.50
2018-01-27T14:45:47.294Z,30.23
2018-01-27T14:48:14.659Z,29.07
2018-01-27T14:50:42.057Z,24.03
2018-01-27T14:53:09.464Z,25.63
2018-01-27T14:55:36.850Z,24.80
2018-01-27T14:58:04.269Z,29.90
2018-01-27T15:00:31.686Z,30.53
2018-01-27T15:02:59.177Z,26.10
2018-01-27T15:05:26.587Z,27.63
2018-01-27T15:07:53.975Z,35.33
2018-01-27T15:10:21.392Z,25.30
2018-01-27T15:12:48.911Z,24.67
2018-01-27T15:15:16.312Z,34.13
2018-01-27T15:17:43.722Z,23.87
2018-01-27T15:20:11.111Z,31.63
2018-01-27T15:22:38.539Z,29.10
2018-01-27T15:25:05.939Z,27.13
2018-01-27T15:27:33.338Z,25.60
2018-01-27T15:30:00.730Z,24.77
2018-01-27T15:32:28.134Z,26.50
2018-01-27T15:34:55.547Z,31.80
2018-01-27T15:37:22.933Z,34.73
2018-01-27T15:39:50.346Z,34.67
2018-01-27T15:42:17.746Z,28.50
2018-01-27T15:44:45.155Z,36.43
2018-01-27T15:47:12.552Z,32.20
2018-01-27T15:49:39.944Z,35.30
2018-01-27T15:52:07.334Z,39.33
2018-01-27T15:54:34.729Z,39.77
2018-01-27T15:57:02.207Z,34.73
2018-01-27T15:59:29.613Z,36.77
2018-01-27T16:01:57.010Z,39.90
2018-01-27T16:04:24.480Z,39.70
2018-01-27T16:06:51.924Z,37.07
2018-01-27T16:09:19.325Z,37.27
2018-01-27T16:11:46.746Z,39.13
2018-01-27T16:14:14.154Z,35.70
2018-01-27T16:16:41.546Z,38.80
2018-01-27T16:19:08.950Z,37.80
2018-01-27T16:21:36.483Z,36.73
2018-01-27T16:24:03.914Z,38.73
2018-01-27T16:26:31.559Z,35.77
2018-01-27T16:28:58.967Z,39.10
2018-01-27T16:31:26.358Z,40.97
2018-01-27T16:33:53.774Z,37.43
2018-01-27T16:36:21.175Z,35.10
2018-01-27T16:38:48.566Z,37.93
2018-01-27T16:41:15.984Z,39.40
2018-01-27T16:43:43.403Z,36.00
2018-01-27T16:46:10.791Z,41.87
2018-01-27T16:48:38.190Z,36.90
2018-01-27T16:51:05.594Z,36.13
2018-01-27T16:53:33.094Z,37.93
2018-01-27T16:56:00.492Z,39.20
2018-01-27T16:58:27.996Z,40.43
2018-01-27T17:00:55.428Z,47.67
2018-01-27T17:03:22.813Z,38.90
2018-01-27T17:05:50.287Z,38.27
2018-01-27T17:08:17.682Z,39.60
2018-01-27T17:10:45.088Z,35.57
2018-01-27T17:13:12.588Z,38.70
2018-01-27T17:15:39.974Z,33.13
2018-01-27T17:18:07.375Z,38.03
2018-01-27T17:20:34.788Z,36.50
2018-01-27T17:23:02.206Z,48.80
2018-01-27T17:25:29.593Z,38.43
2018-01-27T17:27:56.993Z,39.20
2018-01-27T17:30:24.382Z,41.43
2018-01-27T17:32:51.784Z,46.23
2018-01-27T17:35:19.215Z,39.37
2018-01-27T17:37:46.610Z,50.10
2018-01-27T17:40:14.009Z,44.57
2018-01-27T17:42:41.717Z,39.37
2018-01-27T17:45:09.105Z,44.70
2018-01-27T17:47:36.490Z,39.97
2018-01-27T17:50:03.917Z,52.43
2018-01-27T17:52:31.323Z,48.10
2018-01-27T17:54:58.730Z,41.67
2018-01-27T17:57:26.168Z,50.73
2018-01-27T17:59:53.579Z,45.90
2018-01-27T18:02:20.984Z,46.20
2018-01-27T18:04:48.394Z,52.33
2018-01-27T18:07:15.792Z,46.20
2018-01-27T18:09:43.191Z,50.73
2018-01-27T18:12:10.582Z,48.73
2018-01-27T18:14:38.022Z,54.47
2018-01-27T18:17:05.582Z,47.97
2018-01-27T18:19:32.986Z,46.93
2018-01-27T18:22:00.401Z,46.93
2018-01-27T18:24:27.794Z,47.20
2018-01-27T18:26:55.182Z,45.83
2018-01-27T18:29:22.582Z,56.70
2018-01-27T18:31:50.005Z,45.03
2018-01-27T18:34:17.386Z,57.10
2018-01-27T18:36:44.795Z,43.17
2018-01-27T18:39:12.206Z,45.73
2018-01-27T18:41:39.609Z,45.57
2018-01-27T18:44:07.119Z,48.13
2018-01-27T18:46:34.515Z,40.90
2018-01-27T18:49:01.934Z,42.20
2018-01-27T18:51:29.351Z,40.07
2018-01-27T18:53:56.754Z,40.20
2018-01-27T18:56:24.150Z,46.60
2018-01-27T18:58:51.592Z,34.10
2018-01-27T19:01:18.967Z,37.08
2018-01-27T19:03:46.375Z,42.80
2018-01-27T19:06:13.780Z,33.97
2018-01-27T19:08:41.182Z,36.80
2018-01-27T19:11:08.582Z,37.33
2018-01-27T19:13:35.994Z,37.10
2018-01-27T19:16:03.397Z,34.40
2018-01-27T19:18:30.809Z,37.70
2018-01-27T19:20:58.210Z,35.83
2018-01-27T19:23:25.603Z,31.43
2018-01-27T19:25:53.006Z,42.83
2018-01-27T19:28:20.410Z,32.27
2018-01-27T19:30:47.814Z,30.30
2018-01-27T19:33:15.215Z,28.13
2018-01-27T19:35:42.618Z,30.03
2018-01-27T19:38:10.114Z,25.67
2018-01-27T19:40:37.533Z,27.17
2018-01-27T19:43:04.922Z,26.47
2018-01-27T19:45:32.327Z,26.30
2018-01-27T19:47:59.719Z,28.50
2018-01-27T19:50:27.150Z,33.93
2018-01-27T19:52:54.539Z,23.97
2018-01-27T19:55:21.940Z,26.73
2018-01-27T19:57:49.342Z,22.00
2018-01-27T20:00:16.834Z,22.05
2018-01-27T20:02:44.221Z,24.93
2018-01-27T20:05:11.710Z,19.67
2018-01-27T20:07:39.105Z,27.73
2018-01-27T20:10:06.506Z,20.73
2018-01-27T20:12:33.903Z,22.17
2018-01-27T20:15:01.303Z,22.60
2018-01-27T20:17:28.698Z,20.53
2018-01-27T20:19:56.108Z,20.77
2018-01-27T20:22:23.510Z,21.70
2018-01-27T20:24:50.932Z,21.50
2018-01-27T20:27:18.346Z,19.50
2018-01-27T20:29:45.742Z,23.17
2018-01-27T20:32:13.141Z,17.93
2018-01-27T20:34:40.567Z,27.20
2018-01-27T20:37:07.963Z,25.13
2018-01-27T20:39:35.364Z,12.30
2018-01-27T20:42:02.767Z,16.97
2018-01-27T20:44:30.173Z,19.20
2018-01-27T20:46:57.567Z,17.43
2018-01-27T20:49:24.970Z,18.20
2018-01-27T20:51:55.141Z,15.83
2018-01-27T20:54:22.574Z,17.27
2018-01-27T20:56:49.949Z,11.27
2018-01-27T20:59:17.355Z,15.03
2018-01-27T21:01:44.747Z,20.75
2018-01-27T21:04:12.142Z,11.27
2018-01-27T21:06:39.534Z,15.50
2018-01-27T21:09:06.923Z,10.80
2018-01-27T21:11:34.326Z,11.63
2018-01-27T21:14:02.538Z,14.40
2018-01-27T21:16:29.951Z,12.73
2018-01-27T21:18:57.350Z,11.20
2018-01-27T21:21:24.742Z,9.50
2018-01-27T21:23:52.139Z,11.67
2018-01-27T21:26:19.544Z,15.33
2018-01-27T21:28:46.930Z,11.10
2018-01-27T21:31:14.442Z,12.20
2018-01-27T21:33:41.838Z,11.30
2018-01-27T21:36:09.262Z,7.60
2018-01-27T21:38:36.669Z,9.60
2018-01-27T21:41:04.061Z,10.97
2018-01-27T21:43:31.434Z,8.80
2018-01-27T21:45:58.919Z,14.13
2018-01-27T21:48:26.320Z,12.00
2018-01-27T21:50:53.715Z,7.27
2018-01-27T21:53:21.110Z,13.60
2018-01-27T21:55:48.518Z,13.43
2018-01-27T21:58:15.921Z,13.20
2018-01-27T22:00:43.402Z,9.00
2018-01-27T22:03:10.793Z,13.63
2018-01-27T22:05:38.203Z,10.60
2018-01-27T22:08:05.659Z,11.50
2018-01-27T22:10:33.077Z,11.37
2018-01-27T22:13:00.482Z,10.47
2018-01-27T22:15:27.880Z,9.63
2018-01-27T22:17:55.277Z,11.57
2018-01-27T22:20:22.674Z,7.60
2018-01-27T22:22:50.062Z,10.60
2018-01-27T22:25:17.462Z,11.70
2018-01-27T22:27:44.887Z,12.00
2018-01-27T22:30:12.270Z,7.60
2018-01-27T22:32:39.678Z,10.30
2018-01-27T22:35:07.083Z,9.90
2018-01-27T22:37:34.500Z,14.37
2018-01-27T22:40:01.882Z,14.37
2018-01-27T22:42:29.258Z,7.43
2018-01-27T22:44:56.679Z,11.07
2018-01-27T22:47:24.068Z,11.60
2018-01-27T22:49:51.492Z,13.40
2018-01-27T22:52:18.887Z,9.33
2018-01-27T22:54:46.295Z,12.77
2018-01-27T22:57:13.695Z,11.60
2018-01-27T22:59:41.091Z,12.50
2018-01-27T23:02:08.486Z,16.00
2018-01-27T23:04:35.871Z,13.43
2018-01-27T23:07:03.283Z,14.93
2018-01-27T23:09:30.676Z,10.77
2018-01-27T23:11:58.104Z,13.30
2018-01-27T23:14:25.502Z,21.03
2018-01-27T23:16:52.925Z,15.07
2018-01-27T23:19:20.302Z,14.47
2018-01-27T23:21:47.699Z,14.73
2018-01-27T23:24:15.098Z,13.33
2018-01-27T23:26:42.491Z,16.17
2018-01-27T23:29:09.903Z,14.60
2018-01-27T23:31:37.310Z,20.67
2018-01-27T23:34:04.706Z,13.53
2018-01-27T23:36:32.102Z,12.23
2018-01-27T23:38:59.615Z,14.17
2018-01-27T23:41:27.039Z,18.23
2018-01-27T23:43:54.455Z,13.50
2018-01-27T23:46:21.887Z,16.00
2018-01-27T23:48:49.315Z,10.70
2018-01-27T23:51:16.715Z,16.03
2018-01-27T23:53:44.129Z,12.20
2018-01-27T23:56:11.510Z,13.23
2018-01-27T23:58:38.952Z,12.73
